Main page
METAR-TAF:

METAR-TAF

Airports :

Hunt Field

Lander, Wyoming, United States

latitude: 42-48-53N, longitude: 108-43-41W, elevation: 5586 ft

Current weather observation

The report was made 1 hour and 0 minutes ago, at 10:53 UTC
Wind 7 mph from the Southwest
Temperature 45°F
Humidity 53%
Pressure 29.74 in. Hg
Visibility: 10 miles
Clear sky

METAR: KLND 251053Z AUTO 23006KT 10SM CLR 07/M02 A2974 RMK AO2 SLP028 T00671017

Time: 05:53 (11:53 UTC)

Forecast

The report was made 33 minutes ago, at 11:20 UTC
Forecast valid from 25 at 12 UTC to 26 at 12 UTC
Wind 7 mph from variable directions
Visibility: 6 miles
Broken clouds at a height of 10000 ft
From 25 at 2000 UTC
Wind 12 mph from the West
Visibility: 6 miles
Broken clouds at a height of 6000 ft
From 26 at 0100 UTC
Wind 7 mph from variable directions
Visibility: 6 miles
Broken clouds at a height of 12000 ft

TAF: KLND 251120Z 2512/2612 VRB06KT P6SM BKN100 FM252000 26010KT P6SM BKN060 FM260100 VRB06KT P6SM BKN120

Weather observations and forecasts of more than 4000 airports (METAR and TAF reports).

The available stations are represented by yellow and red dots on the map.

Hover mouse over dot to see the name of the station.

Then click to see weather observations and forecasts.

To change the map : click on the green buttons with a black cross to zoom in, on the green button with a dash to zoom out, or on the green arrows for adjacent maps.


METAR-TAF: